Time;durP1;ratioP1;P1;durP2;ratioP2;P2;SDS_P1;SDS_P2;PMS_P1;PMS_P2;Temp;Humidity;BMP_temperature;BMP_pressure;BME280_temperature;BME280_humidity;BME280_pressure;Samples;Min_cycle;Max_cycle;Signal;HPM_P1;HPM_P2
2022/05/13 00:00:40;;;;;;;;;1.00;1.00;;;;;17.55;42.05;101548.84;5035018;28;45317;-53
2022/05/13 00:03:05;;;;;;;;;2.50;1.50;;;;;17.52;41.76;101549.34;5035096;28;45999;-53
2022/05/13 00:05:31;;;;;;;;;3.00;2.00;;;;;17.55;41.42;101550.78;5034728;28;45250;-48
2022/05/13 00:07:56;;;;;;;;;2.00;2.00;;;;;17.52;41.65;101556.81;5037324;28;45375;-53
2022/05/13 00:10:24;;;;;;;;;1.00;1.00;;;;;17.48;41.29;101551.75;5038600;28;45332;-52
2022/05/13 00:12:50;;;;;;;;;1.40;1.00;;;;;17.43;41.03;101548.84;5037806;28;46774;-52
2022/05/13 00:15:18;;;;;;;;;0.00;0.00;;;;;17.26;40.81;101520.09;5038205;28;45356;-54
2022/05/13 00:17:43;;;;;;;;;1.00;1.00;;;;;17.37;40.71;101547.00;5036679;28;45243;-56
2022/05/13 00:20:09;;;;;;;;;2.00;2.00;;;;;17.37;41.08;101548.94;5038646;28;45746;-51
2022/05/13 00:22:41;;;;;;;;;1.50;1.50;;;;;17.34;41.27;101553.03;5037572;28;46035;-50
2022/05/13 00:25:06;;;;;;;;;1.20;1.00;;;;;17.25;41.51;101540.59;5070718;28;45538;-51
2022/05/13 00:27:32;;;;;;;;;0.25;0.25;;;;;17.26;41.08;101547.81;5036530;28;45390;-50
2022/05/13 00:29:58;;;;;;;;;0.25;0.25;;;;;17.18;41.21;101543.47;5038336;28;45511;-54
2022/05/13 00:32:23;;;;;;;;;0.00;0.00;;;;;17.22;41.37;101552.19;5037642;28;46465;-49
2022/05/13 00:34:49;;;;;;;;;0.50;0.50;;;;;17.18;41.31;101552.63;5037728;28;45567;-49
2022/05/13 00:37:14;;;;;;;;;1.00;1.00;;;;;17.10;41.35;101539.13;5037873;28;45368;-53
2022/05/13 00:39:40;;;;;;;;;0.00;0.00;;;;;17.10;41.06;101552.13;5037882;28;45260;-52
2022/05/13 00:42:09;;;;;;;;;1.25;1.00;;;;;17.03;41.25;101536.41;5037882;28;46094;-52
2022/05/13 00:44:36;;;;;;;;;0.20;0.20;;;;;16.97;41.26;101547.59;5037515;28;45691;-53
2022/05/13 00:47:03;;;;;;;;;1.00;1.00;;;;;16.89;41.10;101535.75;5037388;28;45409;-54
2022/05/13 00:49:28;;;;;;;;;0.00;0.00;;;;;16.70;40.72;101507.22;5038162;28;45631;-52
2022/05/13 00:51:54;;;;;;;;;1.00;0.00;;;;;16.91;40.89;101539.13;5019105;28;46588;-51
2022/05/13 00:54:19;;;;;;;;;2.25;1.00;;;;;16.81;40.70;101524.97;5037556;28;45298;-48
2022/05/13 00:56:46;;;;;;;;;2.00;1.00;;;;;16.69;40.93;101526.88;5037331;28;45164;-54
2022/05/13 00:59:19;;;;;;;;;2.80;2.00;;;;;16.84;41.06;101551.38;5070190;28;45325;-53
2022/05/13 01:01:45;;;;;;;;;2.00;1.00;;;;;16.85;41.00;101542.00;5036263;28;45398;-55
2022/05/13 01:04:12;;;;;;;;;2.00;2.00;;;;;16.91;40.67;101549.38;5037322;28;45404;-55
2022/05/13 01:06:38;;;;;;;;;1.20;0.80;;;;;16.86;40.83;101533.44;5019872;28;45469;-55
2022/05/13 01:09:03;;;;;;;;;1.00;1.00;;;;;16.87;40.98;101553.72;5037526;28;45858;-51
2022/05/13 01:11:30;;;;;;;;;1.25;1.25;;;;;16.89;40.69;101552.41;5037542;28;46326;-50
2022/05/13 01:13:59;;;;;;;;;2.40;1.00;;;;;16.78;40.92;101545.72;5036171;28;45493;-48
2022/05/13 01:16:24;;;;;;;;;1.80;1.00;;;;;16.65;40.89;101543.13;5037042;28;45183;-52
2022/05/13 01:18:50;;;;;;;;;0.25;0.25;;;;;16.71;40.86;101546.88;5037463;28;45279;-50
2022/05/13 01:21:20;;;;;;;;;1.50;1.50;;;;;16.53;40.92;101513.44;5006243;28;46580;-51
2022/05/13 01:23:45;;;;;;;;;0.80;0.60;;;;;16.77;40.85;101555.09;5018431;28;45425;-52
2022/05/13 01:26:13;;;;;;;;;1.00;1.00;;;;;16.70;41.07;101556.28;5036986;28;45464;-46
2022/05/13 01:28:50;;;;;;;;;0.60;0.60;;;;;16.48;41.39;101531.81;5035409;28;45488;-48
2022/05/13 01:31:44;;;;;;;;;0.80;0.20;;;;;16.60;41.51;101556.84;5036290;28;45956;-51
2022/05/13 01:34:11;;;;;;;;;2.00;1.00;;;;;16.02;41.61;101459.31;5036252;28;45371;-50
2022/05/13 01:36:37;;;;;;;;;2.00;2.00;;;;;16.58;41.80;101553.44;5036966;28;45243;-48
2022/05/13 01:39:03;;;;;;;;;0.00;0.00;;;;;16.34;42.26;101537.50;5036221;28;45315;-48
2022/05/13 01:41:28;;;;;;;;;1.50;1.50;;;;;16.47;42.38;101566.13;5036558;28;46136;-50
2022/05/13 01:43:54;;;;;;;;;2.00;0.25;;;;;16.50;42.79;101571.22;5036524;28;45508;-48
2022/05/13 01:46:20;;;;;;;;;1.20;1.20;;;;;16.33;42.62;101530.28;5036696;28;45490;-48
2022/05/13 01:48:46;;;;;;;;;1.00;1.00;;;;;16.44;42.79;101536.16;5036875;28;45366;-50
2022/05/13 01:51:12;;;;;;;;;0.00;0.00;;;;;16.35;43.01;101533.69;5036781;28;45612;-53
2022/05/13 01:53:37;;;;;;;;;0.00;0.00;;;;;16.46;43.38;101545.06;5035081;28;45418;-52
2022/05/13 01:56:03;;;;;;;;;2.00;1.00;;;;;16.14;43.41;101507.31;5035713;28;45303;-48
2022/05/13 01:58:28;;;;;;;;;1.00;1.00;;;;;16.44;43.62;101556.38;5036531;28;45405;-49
2022/05/13 02:00:55;;;;;;;;;1.75;1.75;;;;;16.37;43.92;101553.69;5035048;28;46849;-50
2022/05/13 02:06:05;;;;;;;;;1.00;1.00;;;;;16.35;44.18;101550.31;5036584;28;45393;-48
2022/05/13 02:08:31;;;;;;;;;2.00;2.00;;;;;16.31;44.43;101549.06;5036638;28;45473;-54
2022/05/13 02:10:56;;;;;;;;;0.40;0.40;;;;;16.34;44.43;101547.78;5035617;28;46483;-54
2022/05/13 02:13:22;;;;;;;;;0.50;0.50;;;;;16.36;44.63;101548.38;5035280;28;45415;-49
2022/05/13 02:15:48;;;;;;;;;2.00;1.50;;;;;16.40;44.44;101552.38;5036412;28;45335;-50
2022/05/13 02:18:13;;;;;;;;;2.00;0.00;;;;;16.38;44.70;101554.50;5036448;28;45552;-51
2022/05/13 02:20:40;;;;;;;;;0.75;0.75;;;;;16.34;44.93;101545.00;5035496;28;45579;-50
2022/05/13 02:23:05;;;;;;;;;2.00;1.00;;;;;16.25;44.92;101550.84;5018817;28;45560;-50
2022/05/13 02:25:31;;;;;;;;;3.00;2.00;;;;;16.24;45.16;101556.63;5035580;28;45299;-50
2022/05/13 02:27:57;;;;;;;;;2.50;1.50;;;;;16.26;45.45;101552.53;5035535;28;45318;-50
2022/05/13 02:30:24;;;;;;;;;1.20;1.20;;;;;16.11;45.32;101514.16;5035337;28;46122;-54
2022/05/13 02:32:49;;;;;;;;;1.20;1.20;;;;;16.39;45.42;101561.78;5035985;28;45335;-50
2022/05/13 02:35:15;;;;;;;;;0.25;0.25;;;;;16.44;45.01;101563.84;5036454;28;45299;-52
2022/05/13 02:37:40;;;;;;;;;2.00;2.00;;;;;16.46;45.11;101561.69;5036324;28;45317;-50
2022/05/13 02:40:06;;;;;;;;;1.00;0.50;;;;;16.42;45.04;101560.47;5036151;28;45662;-53
2022/05/13 02:42:32;;;;;;;;;0.40;0.40;;;;;16.34;45.09;101558.84;5034999;28;45362;-52
2022/05/13 02:44:58;;;;;;;;;1.00;1.00;;;;;16.36;45.05;101551.13;5035976;28;45384;-52
2022/05/13 02:47:24;;;;;;;;;1.20;1.20;;;;;16.16;45.11;101538.38;5036387;28;45385;-49
2022/05/13 02:50:17;;;;;;;;;3.00;3.00;;;;;16.28;45.12;101557.00;5036049;28;46082;-49
2022/05/13 02:52:35;;;;;;;;;0.60;0.60;;;;;16.34;45.18;101556.91;5035860;28;45374;-52
2022/05/13 02:55:00;;;;;;;;;1.25;1.25;;;;;16.37;45.15;101559.22;5036129;28;45409;-53
2022/05/13 02:57:25;;;;;;;;;1.00;1.00;;;;;16.38;45.28;101562.81;5036024;28;45532;-51
2022/05/13 02:59:51;;;;;;;;;4.00;1.00;;;;;16.31;45.16;101554.63;5034672;28;45527;-53
2022/05/13 03:02:16;;;;;;;;;1.00;0.50;;;;;16.26;45.48;101551.69;5035901;28;45600;-52
2022/05/13 03:04:42;;;;;;;;;3.00;2.00;;;;;16.25;45.49;101561.06;5034982;28;45402;-51
2022/05/13 03:07:07;;;;;;;;;2.75;1.75;;;;;16.24;45.48;101557.44;5036011;28;45446;-55
2022/05/13 03:09:34;;;;;;;;;2.00;1.25;;;;;16.25;45.59;101550.84;5035586;28;46085;-50
2022/05/13 03:12:00;;;;;;;;;5.20;2.20;;;;;16.29;45.63;101558.69;5035504;28;45743;-49
2022/05/13 03:14:25;;;;;;;;;3.00;1.75;;;;;16.25;45.65;101561.06;5035770;28;45361;-51
2022/05/13 03:16:51;;;;;;;;;2.25;1.00;;;;;16.22;45.90;101561.53;5036220;28;45800;-53
2022/05/13 03:19:16;;;;;;;;;3.75;1.75;;;;;16.20;45.72;101552.59;5035567;28;46439;-52
2022/05/13 03:21:42;;;;;;;;;2.50;1.00;;;;;16.15;46.02;101544.13;5034288;28;45384;-51
2022/05/13 03:24:08;;;;;;;;;1.75;1.00;;;;;16.13;45.92;101545.22;5035634;28;45307;-47
2022/05/13 03:26:33;;;;;;;;;2.60;2.00;;;;;16.11;46.07;101543.75;5035849;28;45311;-48
2022/05/13 03:28:59;;;;;;;;;0.00;0.00;;;;;16.12;45.93;101548.22;5035482;28;46113;-54
2022/05/13 03:31:24;;;;;;;;;2.75;2.00;;;;;16.07;46.39;101546.13;5035495;28;45561;-50
2022/05/13 03:33:50;;;;;;;;;1.25;1.00;;;;;16.09;46.42;101556.97;5035706;28;45430;-52
2022/05/13 03:36:15;;;;;;;;;0.00;0.00;;;;;16.03;46.80;101558.75;5035504;28;45511;-53
2022/05/13 03:38:41;;;;;;;;;5.00;3.75;;;;;16.02;46.01;101551.53;5035390;28;46173;-54
2022/05/13 03:41:07;;;;;;;;;5.50;1.75;;;;;16.00;46.57;101559.19;5068592;28;45410;-49
2022/05/13 03:43:32;;;;;;;;;2.00;1.00;;;;;15.90;47.16;101554.16;5038963;28;45435;-51
2022/05/13 03:45:58;;;;;;;;;3.25;1.50;;;;;15.93;47.05;101559.28;5039120;28;45316;-51
2022/05/13 03:48:23;;;;;;;;;2.50;2.50;;;;;15.94;47.10;101558.19;5038481;28;46011;-48
2022/05/13 03:50:49;;;;;;;;;3.25;1.75;;;;;15.85;47.14;101546.53;5039005;28;45413;-49
2022/05/13 03:53:14;;;;;;;;;5.50;3.00;;;;;15.91;47.70;101555.00;5038611;28;45239;-54
2022/05/13 03:55:41;;;;;;;;;2.00;2.00;;;;;15.92;47.83;101559.50;5039204;28;45220;-52
2022/05/13 03:58:07;;;;;;;;;3.20;2.80;;;;;15.91;47.70;101563.31;5038563;28;45805;-54
2022/05/13 04:00:32;;;;;;;;;3.00;2.25;;;;;15.59;48.32;101528.28;5038271;28;45558;-49
2022/05/13 04:02:58;;;;;;;;;1.00;1.00;;;;;15.82;48.45;101562.75;5071109;28;45394;-50
2022/05/13 04:10:52;;;;;;;;;2.40;1.60;;;;;15.55;48.05;101535.31;5065717;28;45750;-50
2022/05/13 04:16:05;;;;;;;;;1.40;1.40;;;;;15.75;47.79;101568.38;5037577;28;45413;-51
2022/05/13 04:18:38;;;;;;;;;1.00;0.40;;;;;15.63;48.29;101545.28;5037675;28;46193;-52
2022/05/13 04:21:05;;;;;;;;;2.40;1.60;;;;;15.41;48.59;101512.44;5038139;28;45474;-48
2022/05/13 04:23:33;;;;;;;;;2.00;2.00;;;;;15.80;47.91;101571.28;5036862;28;45485;-49
2022/05/13 04:25:59;;;;;;;;;2.80;2.00;;;;;15.74;48.23;101563.88;5070193;28;45815;-49
2022/05/13 04:28:25;;;;;;;;;3.25;2.00;;;;;15.81;48.13;101572.97;5037619;28;45840;-51
2022/05/13 04:30:50;;;;;;;;;2.00;2.00;;;;;15.63;48.13;101553.56;5037854;28;45350;-52
2022/05/13 04:33:16;;;;;;;;;3.25;1.25;;;;;15.75;48.24;101584.13;5038091;28;45311;-53
2022/05/13 04:35:41;;;;;;;;;3.00;2.50;;;;;15.71;48.36;101580.94;5037933;28;45661;-53
2022/05/13 04:38:07;;;;;;;;;3.50;2.25;;;;;15.61;48.41;101572.28;5038000;28;45522;-54
2022/05/13 04:40:33;;;;;;;;;4.80;2.00;;;;;15.44;49.38;101582.00;5036071;28;45307;-53
2022/05/13 04:43:00;;;;;;;;;6.25;4.75;;;;;15.38;49.41;101582.06;5037855;28;45441;-50
2022/05/13 04:45:27;;;;;;;;;4.80;3.00;;;;;15.48;49.40;101579.63;5037447;28;45773;-49
2022/05/13 04:48:19;;;;;;;;;4.20;2.40;;;;;15.48;49.24;101579.63;5037648;28;46537;-49
2022/05/13 04:50:52;;;;;;;;;3.20;2.00;;;;;15.58;49.16;101584.66;5022430;28;45418;-49
2022/05/13 04:53:20;;;;;;;;;1.20;1.20;;;;;15.57;49.48;101583.81;5036765;28;45279;-51
2022/05/13 04:55:46;;;;;;;;;2.00;2.00;;;;;15.31;49.92;101554.44;5037437;28;45429;-51
2022/05/13 04:58:12;;;;;;;;;1.75;1.00;;;;;15.56;49.92;101593.22;5036031;28;46092;-50
2022/05/13 05:00:37;;;;;;;;;3.00;3.00;;;;;15.12;50.29;101536.94;5036981;28;45419;-52
2022/05/13 05:03:03;;;;;;;;;1.00;1.00;;;;;15.41;50.30;101592.66;5037638;28;45246;-48
2022/05/13 05:05:28;;;;;;;;;3.00;2.00;;;;;15.37;50.52;101595.03;5003987;28;45363;-50
2022/05/13 05:07:54;;;;;;;;;3.00;1.25;;;;;15.49;50.68;101603.47;5012625;28;45426;-49
2022/05/13 05:10:21;;;;;;;;;3.60;3.60;;;;;15.37;50.64;101585.91;4999209;28;46233;-52
2022/05/13 05:12:49;;;;;;;;;5.40;2.00;;;;;15.55;50.52;101612.78;5017641;28;45304;-50
2022/05/13 05:15:15;;;;;;;;;3.20;2.60;;;;;15.63;50.66;101612.50;5017622;28;45339;-50
2022/05/13 05:17:40;;;;;;;;;3.25;3.25;;;;;15.27;50.57;101554.03;5017003;28;46508;-50
2022/05/13 05:20:06;;;;;;;;;2.00;2.00;;;;;15.65;50.70;101612.28;5017323;28;45295;-51
2022/05/13 05:22:32;;;;;;;;;3.00;2.00;;;;;15.40;50.26;101588.22;5017090;28;45306;-56
2022/05/13 05:24:57;;;;;;;;;3.00;1.50;;;;;15.54;51.13;101627.69;5017356;28;45362;-49
2022/05/13 05:27:23;;;;;;;;;2.75;2.75;;;;;15.46;51.27;101620.50;5017047;28;45434;-52
2022/05/13 05:29:49;;;;;;;;;4.50;2.75;;;;;15.52;51.04;101630.69;5016927;28;45280;-54
2022/05/13 05:32:14;;;;;;;;;2.50;1.50;;;;;15.53;50.78;101628.78;5041833;28;45457;-51
2022/05/13 05:34:40;;;;;;;;;7.00;4.00;;;;;15.56;51.03;101639.38;5037293;28;45237;-51
2022/05/13 05:37:05;;;;;;;;;4.20;1.20;;;;;15.55;51.32;101641.31;5036542;28;45963;-47
2022/05/13 05:39:31;;;;;;;;;5.25;3.00;;;;;15.56;51.02;101633.84;5037042;28;45294;-54
2022/05/13 05:41:56;;;;;;;;;4.25;3.00;;;;;15.61;51.18;101645.09;5036660;28;45314;-50
2022/05/13 05:44:22;;;;;;;;;3.75;3.00;;;;;15.43;50.73;101607.13;5037134;28;45499;-50
2022/05/13 05:46:47;;;;;;;;;4.00;3.75;;;;;15.45;50.75;101605.00;5036474;28;45692;-49
2022/05/13 05:49:13;;;;;;;;;4.00;4.00;;;;;15.67;50.45;101644.19;5036498;28;45379;-48
2022/05/13 05:51:38;;;;;;;;;4.25;3.00;;;;;15.56;51.55;101647.69;5036387;28;45388;-51
2022/05/13 05:59:32;;;;;;;;;2.60;1.80;;;;;15.41;51.53;101639.69;5036282;28;45327;-46
2022/05/13 06:01:58;;;;;;;;;3.25;3.25;;;;;15.55;51.82;101651.53;5018471;28;45364;-50
2022/05/13 06:04:23;;;;;;;;;4.50;2.50;;;;;15.59;51.44;101656.38;5035462;28;45299;-50
2022/05/13 06:06:49;;;;;;;;;4.75;3.00;;;;;15.41;51.54;101623.09;5020168;28;45856;-50
2022/05/13 06:09:15;;;;;;;;;4.00;4.00;;;;;15.63;51.46;101655.94;5033107;28;45497;-51
2022/05/13 06:11:41;;;;;;;;;2.75;2.25;;;;;15.71;51.53;101669.50;5034132;28;45458;-51
2022/05/13 06:14:08;;;;;;;;;3.50;3.00;;;;;15.61;51.48;101644.25;5036626;28;45298;-50
2022/05/13 06:16:34;;;;;;;;;3.80;1.80;;;;;15.72;51.64;101660.13;5034986;28;45954;-50
2022/05/13 06:19:00;;;;;;;;;3.00;3.00;;;;;15.72;51.38;101668.44;5036046;28;45319;-51
2022/05/13 06:21:33;;;;;;;;;4.60;3.40;;;;;15.53;52.25;101635.13;4995985;27;45384;-51
2022/05/13 06:23:58;;;;;;;;;2.00;2.00;;;;;15.51;51.44;101637.28;5038350;27;45300;-50
2022/05/13 06:26:24;;;;;;;;;3.50;2.00;;;;;15.77;51.51;101682.44;5035930;28;45293;-50
2022/05/13 06:28:50;;;;;;;;;3.25;3.25;;;;;15.80;51.61;101687.53;5036484;28;45157;-54
2022/05/13 06:31:16;;;;;;;;;3.00;3.00;;;;;15.85;51.34;101692.41;5035038;28;45899;-50
2022/05/13 06:33:41;;;;;;;;;1.80;1.80;;;;;15.87;50.92;101687.50;5036529;28;45358;-52
2022/05/13 06:36:07;;;;;;;;;1.00;1.00;;;;;15.59;51.29;101650.84;5036161;28;45440;-52
2022/05/13 06:38:33;;;;;;;;;2.00;2.00;;;;;15.84;50.65;101691.56;5034715;28;45891;-49
2022/05/13 06:40:58;;;;;;;;;4.00;2.50;;;;;15.84;50.53;101688.78;5036546;28;45388;-55
2022/05/13 06:43:24;;;;;;;;;2.75;2.00;;;;;15.88;50.09;101685.56;5010377;27;45620;-54
2022/05/13 06:45:49;;;;;;;;;4.00;1.25;;;;;15.89;49.98;101685.34;5013659;28;45690;-51
2022/05/13 06:48:15;;;;;;;;;6.25;2.00;;;;;15.88;49.42;101682.78;5009982;28;45596;-50
2022/05/13 06:50:43;;;;;;;;;1.50;1.50;;;;;15.65;49.49;101656.56;5027630;28;45479;-50
2022/05/13 06:53:09;;;;;;;;;4.40;3.40;;;;;15.88;49.36;101694.72;5063639;28;45776;-53
2022/05/13 06:55:34;;;;;;;;;3.25;3.00;;;;;15.87;49.23;101701.34;5012272;28;47494;-50
2022/05/13 06:58:00;;;;;;;;;1.50;1.50;;;;;15.89;49.36;101696.41;5031970;28;45371;-52
2022/05/13 07:00:26;;;;;;;;;4.25;4.00;;;;;15.87;49.42;101704.09;5030570;28;45432;-53
2022/05/13 07:02:52;;;;;;;;;4.00;3.00;;;;;15.53;49.20;101643.44;5029820;28;45417;-48
2022/05/13 07:05:17;;;;;;;;;2.00;1.50;;;;;15.98;49.04;101708.94;5031499;28;46388;-55
2022/05/13 07:07:43;;;;;;;;;2.75;2.75;;;;;15.89;48.38;101699.19;5029943;28;45479;-55
2022/05/13 07:10:09;;;;;;;;;2.00;2.00;;;;;15.79;49.24;101696.06;5031352;28;45853;-50
2022/05/13 07:12:34;;;;;;;;;2.00;2.00;;;;;15.93;48.90;101711.53;5031488;28;45504;-51
2022/05/13 07:15:02;;;;;;;;;3.75;2.00;;;;;15.99;48.77;101701.47;5030058;28;46572;-49
2022/05/13 07:17:27;;;;;;;;;1.40;1.20;;;;;16.07;47.42;101703.97;5034407;28;45653;-49
2022/05/13 07:19:53;;;;;;;;;2.00;2.00;;;;;16.11;47.43;101707.97;5033801;28;45479;-51
2022/05/13 07:22:18;;;;;;;;;2.00;1.00;;;;;16.13;46.66;101693.91;5035389;28;45394;-52
2022/05/13 07:24:44;;;;;;;;;0.50;0.50;;;;;16.16;46.79;101712.84;5034526;28;45610;-50
2022/05/13 07:27:09;;;;;;;;;1.00;1.00;;;;;16.12;46.64;101706.91;5049953;28;45714;-51
2022/05/13 07:29:35;;;;;;;;;0.25;0.00;;;;;16.17;45.75;101699.84;5034838;28;45449;-51
2022/05/13 07:32:01;;;;;;;;;1.00;1.00;;;;;16.24;45.61;101697.88;5026951;28;45529;-56
2022/05/13 07:34:26;;;;;;;;;1.25;1.25;;;;;16.29;45.68;101694.41;5017345;28;45852;-49
2022/05/13 07:36:54;;;;;;;;;0.25;0.25;;;;;16.34;45.77;101703.72;5034340;28;45793;-52
2022/05/13 07:42:08;;;;;;;;;1.00;1.00;;;;;16.46;45.44;101703.84;5032752;28;45481;-53
2022/05/13 07:44:34;;;;;;;;;3.80;1.60;;;;;16.48;44.32;101709.13;5020719;27;47188;-57
2022/05/13 07:47:03;;;;;;;;;2.80;0.00;;;;;16.53;43.60;101709.31;5034409;28;45506;-55
2022/05/13 07:49:29;;;;;;;;;2.00;1.00;;;;;16.62;43.09;101704.31;5065774;28;45727;-50
2022/05/13 07:51:54;;;;;;;;;2.00;1.00;;;;;16.63;43.25;101706.00;5034495;28;45385;-55
2022/05/13 07:54:20;;;;;;;;;1.75;0.50;;;;;16.59;42.68;101710.34;5033112;28;45502;-52
2022/05/13 07:56:45;;;;;;;;;1.00;1.00;;;;;16.65;42.41;101714.97;5034146;28;45885;-56
2022/05/13 07:59:11;;;;;;;;;5.00;2.00;;;;;16.70;42.89;101711.50;5034435;28;45715;-52
2022/05/13 08:01:36;;;;;;;;;1.75;1.75;;;;;16.70;42.68;101720.63;5034270;28;45717;-50
2022/05/13 08:04:02;;;;;;;;;2.00;1.00;;;;;16.57;42.87;101684.75;5033940;28;46562;-50
2022/05/13 08:06:27;;;;;;;;;0.00;0.00;;;;;16.66;42.45;101705.56;5026631;28;45904;-48
2022/05/13 08:08:56;;;;;;;;;0.75;0.00;;;;;16.82;42.68;101708.78;5032562;28;45801;-49
2022/05/13 08:11:22;;;;;;;;;1.60;1.60;;;;;16.90;42.64;101701.03;5033393;28;45579;-53
2022/05/13 08:13:47;;;;;;;;;2.00;1.00;;;;;16.62;42.82;101640.56;5032996;28;46091;-50
2022/05/13 08:16:15;;;;;;;;;2.00;1.00;;;;;16.76;42.62;101666.22;5034174;28;45468;-55
2022/05/13 08:18:41;;;;;;;;;0.40;0.40;;;;;17.03;42.56;101715.84;5032486;28;45501;-56
2022/05/13 08:21:07;;;;;;;;;1.00;1.00;;;;;17.05;42.70;101714.53;5032446;28;45810;-50
2022/05/13 08:23:33;;;;;;;;;2.00;0.25;;;;;16.87;42.60;101681.22;5066171;28;45440;-47
2022/05/13 08:25:58;;;;;;;;;1.75;1.75;;;;;17.05;42.55;101722.00;5033663;28;45523;-49
2022/05/13 08:28:24;;;;;;;;;3.00;1.00;;;;;17.02;42.56;101722.47;5032703;28;45602;-51
2022/05/13 08:30:50;;;;;;;;;1.75;1.00;;;;;17.05;42.49;101710.91;5032963;28;45492;-54
2022/05/13 08:33:15;;;;;;;;;1.00;1.00;;;;;16.98;42.64;101697.09;5033045;28;46782;-50
2022/05/13 08:35:44;;;;;;;;;1.00;1.00;;;;;17.06;42.38;101704.28;5028154;28;45347;-49
2022/05/13 08:38:10;;;;;;;;;0.20;0.20;;;;;17.09;42.36;101712.16;5028381;28;45891;-57
2022/05/13 08:40:53;;;;;;;;;3.00;2.00;;;;;17.13;42.13;101718.06;5034042;28;45493;-51
2022/05/13 08:43:35;;;;;;;;;2.40;0.00;;;;;17.15;42.61;101710.34;5011649;27;46536;-52
2022/05/13 08:46:16;;;;;;;;;1.60;1.00;;;;;17.22;42.13;101716.66;5031807;28;45464;-55
2022/05/13 08:49:13;;;;;;;;;0.40;0.40;;;;;17.29;41.58;101717.44;5033672;28;45432;-56
2022/05/13 08:55:00;;;;;;;;;1.00;0.00;;;;;17.43;41.43;101706.16;5032145;28;45583;-58
2022/05/13 08:57:28;;;;;;;;;1.00;1.00;;;;;17.59;40.97;101708.28;5033006;28;45450;-50
2022/05/13 08:59:59;;;;;;;;;1.80;1.20;;;;;17.60;40.70;101711.88;5048762;28;46073;-51
2022/05/13 09:02:34;;;;;;;;;0.00;0.00;;;;;17.63;40.36;101705.00;5032133;28;45723;-52
2022/05/13 09:05:02;;;;;;;;;2.40;1.60;;;;;17.69;40.22;101707.72;5048317;28;46405;-51
2022/05/13 09:07:28;;;;;;;;;0.00;0.00;;;;;17.70;40.73;101711.31;5030678;28;45572;-52
2022/05/13 09:10:01;;;;;;;;;1.00;1.00;;;;;17.69;40.89;101704.94;5033601;28;45770;-50
2022/05/13 09:12:52;;;;;;;;;0.00;0.00;;;;;17.63;40.60;101713.34;5031815;28;45580;-52
2022/05/13 09:15:38;;;;;;;;;1.60;0.80;;;;;17.67;40.46;101707.06;5032760;28;45481;-49
2022/05/13 09:18:22;;;;;;;;;1.00;1.00;;;;;17.77;40.11;101705.66;5033202;28;45477;-51
2022/05/13 09:20:52;;;;;;;;;1.60;1.60;;;;;17.76;40.36;101702.03;5032245;28;45454;-56
2022/05/13 09:23:17;;;;;;;;;2.00;2.00;;;;;17.74;40.07;101682.00;5064639;28;45611;-50
2022/05/13 09:26:09;;;;;;;;;2.00;1.00;;;;;17.95;39.90;101711.16;5032678;28;46650;-49
2022/05/13 09:28:37;;;;;;;;;1.00;1.00;;;;;17.97;39.95;101708.13;5032266;28;45413;-50
2022/05/13 09:31:06;;;;;;;;;1.40;1.40;;;;;17.71;39.26;101665.81;5031766;28;45396;-49
2022/05/13 09:33:34;;;;;;;;;1.00;1.00;;;;;18.09;39.16;101717.34;5031684;28;45528;-50
2022/05/13 09:36:01;;;;;;;;;0.80;0.80;;;;;18.17;38.87;101712.53;5032743;28;45656;-53
2022/05/13 09:38:30;;;;;;;;;1.20;1.20;;;;;18.23;38.13;101714.34;5014304;28;45610;-52
2022/05/13 09:41:04;;;;;;;;;3.40;1.00;;;;;18.08;38.31;101685.13;5033054;28;45369;-49
2022/05/13 09:43:36;;;;;;;;;0.60;0.60;;;;;18.07;38.44;101679.78;5017977;27;45894;-54
2022/05/13 09:46:03;;;;;;;;;2.60;1.00;;;;;18.31;38.95;101718.72;5017270;27;46107;-53
2022/05/13 09:48:29;;;;;;;;;0.80;0.80;;;;;18.36;38.12;101707.72;5035446;28;45496;-50
2022/05/13 09:50:59;;;;;;;;;0.00;0.00;;;;;18.34;37.71;101709.88;5018894;27;45535;-50
2022/05/13 09:53:30;;;;;;;;;1.20;1.20;;;;;18.38;37.88;101711.09;5035419;28;45681;-50
2022/05/13 09:56:01;;;;;;;;;1.00;1.00;;;;;18.32;37.73;101693.47;5056646;28;46442;-50
2022/05/13 09:58:33;;;;;;;;;1.00;1.00;;;;;18.43;37.56;101708.47;5021739;28;46796;-50
2022/05/13 10:01:10;;;;;;;;;2.60;2.00;;;;;18.38;37.32;101697.22;5032118;28;45346;-52
2022/05/13 10:03:37;;;;;;;;;1.00;1.00;;;;;18.45;36.50;101694.31;5029913;28;45928;-53
2022/05/13 10:06:11;;;;;;;;;1.80;1.40;;;;;18.16;36.85;101658.91;5031579;28;45507;-49
2022/05/13 10:08:39;;;;;;;;;0.20;0.20;;;;;18.47;36.49;101698.53;5032166;28;45437;-50
2022/05/13 10:13:59;;;;;;;;;1.20;1.00;;;;;18.61;36.31;101684.41;5044851;28;45439;-55
2022/05/13 10:16:29;;;;;;;;;0.60;0.60;;;;;18.34;36.40;101662.66;5031689;28;47116;-48
2022/05/13 10:19:01;;;;;;;;;1.00;1.00;;;;;18.58;36.56;101693.22;5031667;28;45431;-52
2022/05/13 10:21:33;;;;;;;;;2.40;1.20;;;;;18.49;35.90;101676.91;5029641;28;45512;-52
2022/05/13 10:24:21;;;;;;;;;5.00;3.40;;;;;18.65;35.91;101696.72;5046783;28;45642;-52
2022/05/13 10:26:47;;;;;;;;;0.00;0.00;;;;;18.71;35.88;101684.63;5063103;28;45451;-52
2022/05/13 10:29:19;;;;;;;;;2.50;1.25;;;;;18.73;36.16;101681.59;5031401;28;45923;-55
2022/05/13 10:31:45;;;;;;;;;2.00;2.00;;;;;18.74;36.01;101686.94;5065632;28;45449;-52
2022/05/13 10:34:36;;;;;;;;;2.00;2.00;;;;;18.64;36.05;101678.34;5068149;28;45388;-50
2022/05/13 10:37:08;;;;;;;;;1.80;1.20;;;;;18.35;36.49;101642.97;5031160;28;45614;-54
2022/05/13 10:39:44;;;;;;;;;3.00;1.60;;;;;18.72;36.29;101679.91;5068261;28;45285;-50
2022/05/13 10:42:19;;;;;;;;;1.80;1.80;;;;;18.81;36.45;101679.28;5066197;27;45251;-50
2022/05/13 10:45:05;;;;;;;;;2.00;1.40;;;;;18.86;35.86;101674.91;5035613;28;45305;-49
2022/05/13 10:47:47;;;;;;;;;1.00;1.00;;;;;18.90;35.96;101687.25;5062932;27;45976;-52
2022/05/13 10:50:16;;;;;;;;;1.80;1.00;;;;;18.73;35.65;101642.69;5044148;27;45747;-53
2022/05/13 10:53:11;;;;;;;;;2.00;0.80;;;;;19.00;36.17;101664.38;5067867;28;45885;-49
2022/05/13 10:55:59;;;;;;;;;0.80;0.80;;;;;19.13;36.02;101669.69;5018627;27;45519;-49
2022/05/13 10:58:43;;;;;;;;;1.40;1.40;;;;;19.24;35.71;101659.59;5033147;28;46960;-46
2022/05/13 11:01:38;;;;;;;;;1.00;1.00;;;;;19.27;35.21;101666.59;5034956;28;45679;-51
2022/05/13 11:04:07;;;;;;;;;1.00;1.00;;;;;19.18;35.25;101657.81;5034589;28;45393;-55
2022/05/13 11:06:50;;;;;;;;;1.20;1.20;;;;;19.30;35.38;101655.81;5036071;28;45803;-53
2022/05/13 11:09:31;;;;;;;;;2.00;2.00;;;;;19.06;35.54;101605.81;5018810;28;46877;-50
2022/05/13 11:12:22;;;;;;;;;1.20;1.20;;;;;19.32;35.57;101636.91;5034557;28;45389;-52
2022/05/13 11:15:00;;;;;;;;;2.80;2.80;;;;;19.58;35.47;101662.44;5028934;28;45310;-57
2022/05/13 11:17:56;;;;;;;;;5.40;5.40;;;;;19.70;35.42;101653.19;5036226;28;45800;-51
2022/05/13 11:20:26;;;;;;;;;0.40;0.40;;;;;19.70;35.17;101654.03;5034159;28;45935;-52
2022/05/13 11:25:54;;;;;;;;;4.00;2.00;;;;;19.69;35.34;101652.34;5009904;28;45582;-57
2022/05/13 11:26:37;;;;;;;;;3.60;2.00;;;;;19.81;35.41;101634.72;5033622;28;45853;-52
2022/05/13 11:29:14;;;;;;;;;2.40;2.20;;;;;19.72;35.04;101606.44;5030105;28;45398;-57
2022/05/13 11:31:40;;;;;;;;;1.00;1.00;;;;;20.00;35.67;101643.69;5034185;28;46725;-51
2022/05/13 11:34:45;;;;;;;;;3.00;3.00;;;;;20.10;35.73;101648.56;5029448;28;45709;-48
2022/05/13 11:37:15;;;;;;;;;2.00;2.00;;;;;20.18;35.07;101643.41;5028548;28;45628;-56
2022/05/13 11:40:03;;;;;;;;;2.00;2.00;;;;;20.17;35.33;101621.41;5030821;28;45378;-51
2022/05/13 11:46:01;;;;;;;;;3.20;1.80;;;;;20.35;35.84;101627.78;5031108;28;45437;-55
2022/05/13 11:48:34;;;;;;;;;3.60;2.00;;;;;20.45;35.40;101637.13;5028256;28;45446;-52
2022/05/13 11:51:02;;;;;;;;;2.80;2.80;;;;;20.33;35.24;101632.75;5013664;28;45524;-51
2022/05/13 11:53:52;;;;;;;;;2.20;2.00;;;;;20.09;35.42;101571.66;5028892;28;45445;-53
2022/05/13 11:56:30;;;;;;;;;1.00;1.00;;;;;20.50;35.23;101618.78;5029386;28;45782;-53
2022/05/13 11:59:02;;;;;;;;;2.00;2.00;;;;;20.49;34.98;101612.34;5030894;28;45814;-56
2022/05/13 12:01:46;;;;;;;;;0.40;0.40;;;;;20.65;34.76;101618.97;5030038;28;45850;-50